sensor_id;sensor_type;location;lat;lon;timestamp;pressure;altitude;pressure_sealevel;temperature;humidity
23339;BME280;11841;49.368;20.962;2023-07-30T00:02:13;95341.34;;;18.51;100.00
23339;BME280;11841;49.368;20.962;2023-07-30T00:04:58;95334.34;;;18.50;100.00
23339;BME280;11841;49.368;20.962;2023-07-30T00:07:44;95338.13;;;18.49;100.00
23339;BME280;11841;49.368;20.962;2023-07-30T00:10:29;95346.44;;;18.38;100.00
23339;BME280;11841;49.368;20.962;2023-07-30T00:13:15;95344.31;;;18.40;100.00
23339;BME280;11841;49.368;20.962;2023-07-30T00:16:00;95335.97;;;18.41;100.00
23339;BME280;11841;49.368;20.962;2023-07-30T00:18:46;95339.19;;;18.43;100.00
23339;BME280;11841;49.368;20.962;2023-07-30T00:21:31;95331.13;;;18.43;100.00
23339;BME280;11841;49.368;20.962;2023-07-30T00:24:17;95327.41;;;18.44;100.00
23339;BME280;11841;49.368;20.962;2023-07-30T00:27:02;95326.88;;;18.42;100.00
23339;BME280;11841;49.368;20.962;2023-07-30T00:29:48;95323.09;;;18.43;100.00
23339;BME280;11841;49.368;20.962;2023-07-30T00:32:33;95316.16;;;18.27;100.00
23339;BME280;11841;49.368;20.962;2023-07-30T00:35:19;95323.44;;;18.17;100.00
23339;BME280;11841;49.368;20.962;2023-07-30T00:38:04;95321.53;;;18.22;100.00
23339;BME280;11841;49.368;20.962;2023-07-30T00:40:49;95311.84;;;18.26;100.00
23339;BME280;11841;49.368;20.962;2023-07-30T00:43:35;95316.41;;;18.31;100.00
23339;BME280;11841;49.368;20.962;2023-07-30T00:46:20;95311.81;;;18.36;100.00
23339;BME280;11841;49.368;20.962;2023-07-30T00:49:06;95311.81;;;18.36;100.00
23339;BME280;11841;49.368;20.962;2023-07-30T00:51:51;95312.34;;;18.38;100.00
23339;BME280;11841;49.368;20.962;2023-07-30T00:54:38;95321.22;;;18.39;100.00
23339;BME280;11841;49.368;20.962;2023-07-30T00:57:25;95314.00;;;18.29;100.00
23339;BME280;11841;49.368;20.962;2023-07-30T01:00:11;95319.88;;;18.31;100.00
23339;BME280;11841;49.368;20.962;2023-07-30T01:02:56;95327.41;;;18.34;100.00
23339;BME280;11841;49.368;20.962;2023-07-30T01:05:42;95325.75;;;18.38;100.00
23339;BME280;11841;49.368;20.962;2023-07-30T01:08:27;95320.41;;;18.38;100.00
23339;BME280;11841;49.368;20.962;2023-07-30T01:11:14;95321.22;;;18.39;100.00
23339;BME280;11841;49.368;20.962;2023-07-30T01:14:00;95316.66;;;18.39;100.00
23339;BME280;11841;49.368;20.962;2023-07-30T01:16:45;95318.28;;;18.35;100.00
23339;BME280;11841;49.368;20.962;2023-07-30T01:19:31;95319.84;;;18.36;100.00
23339;BME280;11841;49.368;20.962;2023-07-30T01:22:16;95307.28;;;18.32;100.00
23339;BME280;11841;49.368;20.962;2023-07-30T01:25:02;95329.31;;;18.24;100.00
23339;BME280;11841;49.368;20.962;2023-07-30T01:27:52;95335.75;;;18.23;100.00
23339;BME280;11841;49.368;20.962;2023-07-30T01:30:41;95331.47;;;18.22;100.00
23339;BME280;11841;49.368;20.962;2023-07-30T01:33:28;95321.81;;;18.26;100.00
23339;BME280;11841;49.368;20.962;2023-07-30T01:36:15;95328.50;;;18.23;100.00
23339;BME280;11841;49.368;20.962;2023-07-30T01:39:01;95319.91;;;18.21;100.00
23339;BME280;11841;49.368;20.962;2023-07-30T01:41:46;95302.75;;;18.22;100.00
23339;BME280;11841;49.368;20.962;2023-07-30T01:44:32;95319.91;;;18.21;100.00
23339;BME280;11841;49.368;20.962;2023-07-30T01:47:17;95318.03;;;18.22;100.00
23339;BME280;11841;49.368;20.962;2023-07-30T01:50:03;95312.41;;;18.23;100.00
23339;BME280;11841;49.368;20.962;2023-07-30T01:52:48;95319.41;;;18.24;100.00
23339;BME280;11841;49.368;20.962;2023-07-30T01:55:34;95328.50;;;18.23;100.00
23339;BME280;11841;49.368;20.962;2023-07-30T01:58:19;95331.72;;;18.25;100.00
23339;BME280;11841;49.368;20.962;2023-07-30T02:01:05;95327.94;;;18.26;100.00
23339;BME280;11841;49.368;20.962;2023-07-30T02:03:50;95324.22;;;18.27;100.00
23339;BME280;11841;49.368;20.962;2023-07-30T02:06:36;95323.41;;;18.27;100.00
23339;BME280;11841;49.368;20.962;2023-07-30T02:09:21;95331.44;;;18.27;100.00
23339;BME280;11841;49.368;20.962;2023-07-30T02:12:07;95329.34;;;18.19;100.00
23339;BME280;11841;49.368;20.962;2023-07-30T02:14:52;95326.66;;;18.19;100.00
23339;BME280;11841;49.368;20.962;2023-07-30T02:17:38;95327.97;;;18.21;100.00
23339;BME280;11841;49.368;20.962;2023-07-30T02:20:23;95336.56;;;18.23;100.00
23339;BME280;11841;49.368;20.962;2023-07-30T02:23:08;95333.06;;;18.23;100.00
23339;BME280;11841;49.368;20.962;2023-07-30T02:25:53;95339.78;;;18.20;100.00
23339;BME280;11841;49.368;20.962;2023-07-30T02:28:39;95343.00;;;18.22;100.00
23339;BME280;11841;49.368;20.962;2023-07-30T02:31:24;95336.00;;;18.21;100.00
23339;BME280;11841;49.368;20.962;2023-07-30T02:34:10;95335.22;;;18.21;100.00
23339;BME280;11841;49.368;20.962;2023-07-30T02:36:55;95342.47;;;18.20;100.00
23339;BME280;11841;49.368;20.962;2023-07-30T02:39:40;95331.75;;;18.20;100.00
23339;BME280;11841;49.368;20.962;2023-07-30T02:42:25;95324.22;;;18.22;100.00
23339;BME280;11841;49.368;20.962;2023-07-30T02:45:11;95340.03;;;18.24;100.00
23339;BME280;11841;49.368;20.962;2023-07-30T02:47:56;95344.09;;;18.11;100.00
23339;BME280;11841;49.368;20.962;2023-07-30T02:50:42;95339.81;;;18.10;100.00
23339;BME280;11841;49.368;20.962;2023-07-30T02:53:27;95337.66;;;18.12;100.00
23339;BME280;11841;49.368;20.962;2023-07-30T02:56:12;95333.34;;;18.16;100.00
23339;BME280;11841;49.368;20.962;2023-07-30T02:58:58;95331.19;;;18.18;100.00
23339;BME280;11841;49.368;20.962;2023-07-30T03:01:44;95339.25;;;18.18;100.00
23339;BME280;11841;49.368;20.962;2023-07-30T03:04:29;95336.56;;;18.18;100.00
23339;BME280;11841;49.368;20.962;2023-07-30T03:07:15;95339.25;;;18.18;100.00
23339;BME280;11841;49.368;20.962;2023-07-30T03:10:00;95345.44;;;18.19;100.00
23339;BME280;11841;49.368;20.962;2023-07-30T03:12:46;95337.66;;;18.12;100.00
23339;BME280;11841;49.368;20.962;2023-07-30T03:15:31;95338.44;;;18.13;100.00
23339;BME280;11841;49.368;20.962;2023-07-30T03:18:16;95343.03;;;18.12;100.00
23339;BME280;11841;49.368;20.962;2023-07-30T03:21:02;95345.44;;;18.14;100.00
23339;BME280;11841;49.368;20.962;2023-07-30T03:23:48;95357.22;;;18.13;100.00
23339;BME280;11841;49.368;20.962;2023-07-30T03:26:34;95349.19;;;18.13;100.00
23339;BME280;11841;49.368;20.962;2023-07-30T03:29:19;95355.09;;;18.09;100.00
23339;BME280;11841;49.368;20.962;2023-07-30T03:32:05;95348.94;;;18.04;100.00
23339;BME280;11841;49.368;20.962;2023-07-30T03:34:51;95340.88;;;18.04;100.00
23339;BME280;11841;49.368;20.962;2023-07-30T03:37:36;95337.16;;;18.05;100.00
23339;BME280;11841;49.368;20.962;2023-07-30T03:40:21;95349.47;;;18.06;100.00
23339;BME280;11841;49.368;20.962;2023-07-30T03:43:07;95363.44;;;18.03;100.00
23339;BME280;11841;49.368;20.962;2023-07-30T03:45:52;95351.09;;;17.97;100.00
23339;BME280;11841;49.368;20.962;2023-07-30T03:48:38;95354.31;;;17.94;100.00
23339;BME280;11841;49.368;20.962;2023-07-30T03:51:23;95351.38;;;17.90;100.00
23339;BME280;11841;49.368;20.962;2023-07-30T03:54:09;95356.47;;;17.92;100.00
23339;BME280;11841;49.368;20.962;2023-07-30T03:56:55;95351.09;;;17.97;100.00
23339;BME280;11841;49.368;20.962;2023-07-30T03:59:40;95357.53;;;18.01;100.00
23339;BME280;11841;49.368;20.962;2023-07-30T04:02:26;95346.81;;;18.01;100.00
23339;BME280;11841;49.368;20.962;2023-07-30T04:05:11;95348.94;;;18.04;100.00
23339;BME280;11841;49.368;20.962;2023-07-30T04:07:57;95352.44;;;18.04;100.00
23339;BME280;11841;49.368;20.962;2023-07-30T04:10:42;95352.69;;;18.08;100.00
23339;BME280;11841;49.368;20.962;2023-07-30T04:13:28;95359.38;;;18.10;100.00
23339;BME280;11841;49.368;20.962;2023-07-30T04:16:13;95352.69;;;18.13;100.00
23339;BME280;11841;49.368;20.962;2023-07-30T04:18:59;95357.50;;;18.16;100.00
23339;BME280;11841;49.368;20.962;2023-07-30T04:21:44;95354.81;;;18.16;100.00
23339;BME280;11841;49.368;20.962;2023-07-30T04:24:30;95354.81;;;18.16;100.00
23339;BME280;11841;49.368;20.962;2023-07-30T04:27:16;95352.66;;;18.18;100.00
23339;BME280;11841;49.368;20.962;2023-07-30T04:30:01;95356.44;;;18.17;100.00
23339;BME280;11841;49.368;20.962;2023-07-30T04:32:46;95357.50;;;18.16;100.00
23339;BME280;11841;49.368;20.962;2023-07-30T04:35:32;95376.81;;;18.13;100.00
23339;BME280;11841;49.368;20.962;2023-07-30T04:38:17;95380.34;;;18.03;100.00
23339;BME280;11841;49.368;20.962;2023-07-30T04:41:03;95387.84;;;18.01;100.00
23339;BME280;11841;49.368;20.962;2023-07-30T04:43:49;95389.16;;;18.04;100.00
23339;BME280;11841;49.368;20.962;2023-07-30T04:46:34;95384.88;;;18.03;100.00
23339;BME280;11841;49.368;20.962;2023-07-30T04:49:19;95385.69;;;18.03;100.00
23339;BME280;11841;49.368;20.962;2023-07-30T04:52:05;95384.06;;;18.07;100.00
23339;BME280;11841;49.368;20.962;2023-07-30T04:54:50;95391.84;;;18.09;100.00
23339;BME280;11841;49.368;20.962;2023-07-30T04:57:35;95396.72;;;18.02;100.00
23339;BME280;11841;49.368;20.962;2023-07-30T05:00:21;95383.81;;;17.94;100.00
23339;BME280;11841;49.368;20.962;2023-07-30T05:03:06;95392.94;;;17.93;100.00
23339;BME280;11841;49.368;20.962;2023-07-30T05:05:53;95393.50;;;17.95;100.00
23339;BME280;11841;49.368;20.962;2023-07-30T05:08:39;95394.53;;;18.04;100.00
23339;BME280;11841;49.368;20.962;2023-07-30T05:11:24;95392.38;;;18.11;100.00
23339;BME280;11841;49.368;20.962;2023-07-30T05:14:09;95395.31;;;18.15;100.00
23339;BME280;11841;49.368;20.962;2023-07-30T05:16:55;95387.03;;;18.11;100.00
23339;BME280;11841;49.368;20.962;2023-07-30T05:19:40;95397.47;;;18.13;100.00
23339;BME280;11841;49.368;20.962;2023-07-30T05:22:25;95395.59;;;18.13;100.00
23339;BME280;11841;49.368;20.962;2023-07-30T05:25:11;95399.88;;;18.14;100.00
23339;BME280;11841;49.368;20.962;2023-07-30T05:27:56;95409.00;;;18.18;100.00
23339;BME280;11841;49.368;20.962;2023-07-30T05:30:41;95415.97;;;18.19;100.00
23339;BME280;11841;49.368;20.962;2023-07-30T05:33:27;95410.88;;;18.23;100.00
23339;BME280;11841;49.368;20.962;2023-07-30T05:36:12;95388.34;;;18.24;100.00
23339;BME280;11841;49.368;20.962;2023-07-30T05:38:58;95390.47;;;18.32;100.00
23339;BME280;11841;49.368;20.962;2023-07-30T05:41:43;95387.50;;;18.33;100.00
23339;BME280;11841;49.368;20.962;2023-07-30T05:44:29;95381.59;;;18.36;100.00
23339;BME280;11841;49.368;20.962;2023-07-30T05:47:14;95387.50;;;18.33;100.00
23339;BME280;11841;49.368;20.962;2023-07-30T05:49:59;95383.22;;;18.37;100.00
23339;BME280;11841;49.368;20.962;2023-07-30T05:52:45;95392.09;;;18.43;100.00
23339;BME280;11841;49.368;20.962;2023-07-30T05:55:30;95384.53;;;18.45;100.00
23339;BME280;11841;49.368;20.962;2023-07-30T05:58:16;95379.44;;;18.48;100.00
23339;BME280;11841;49.368;20.962;2023-07-30T06:01:01;95383.50;;;18.41;100.00
23339;BME280;11841;49.368;20.962;2023-07-30T06:03:47;95388.06;;;18.40;100.00
23339;BME280;11841;49.368;20.962;2023-07-30T06:06:32;95388.03;;;18.45;100.00
23339;BME280;11841;49.368;20.962;2023-07-30T06:09:17;95395.00;;;18.56;100.00
23339;BME280;11841;49.368;20.962;2023-07-30T06:12:03;95394.44;;;18.64;100.00
23339;BME280;11841;49.368;20.962;2023-07-30T06:14:48;95394.44;;;18.64;100.00
23339;BME280;11841;49.368;20.962;2023-07-30T06:17:34;95398.19;;;18.63;100.00
23339;BME280;11841;49.368;20.962;2023-07-30T06:20:19;95398.69;;;18.70;100.00
23339;BME280;11841;49.368;20.962;2023-07-30T06:23:05;95402.97;;;18.76;100.00
23339;BME280;11841;49.368;20.962;2023-07-30T06:25:50;95400.28;;;18.81;100.00
23339;BME280;11841;49.368;20.962;2023-07-30T06:28:35;95402.38;;;18.89;100.00
23339;BME280;11841;49.368;20.962;2023-07-30T06:31:21;95396.69;;;18.96;100.00
23339;BME280;11841;49.368;20.962;2023-07-30T06:34:07;95395.88;;;19.05;100.00
23339;BME280;11841;49.368;20.962;2023-07-30T06:36:52;95392.06;;;19.11;100.00
23339;BME280;11841;49.368;20.962;2023-07-30T06:39:37;95393.13;;;19.15;100.00
23339;BME280;11841;49.368;20.962;2023-07-30T06:42:23;95399.81;;;19.18;100.00
23339;BME280;11841;49.368;20.962;2023-07-30T06:45:09;95399.00;;;19.22;100.00
23339;BME280;11841;49.368;20.962;2023-07-30T06:47:55;95394.13;;;19.30;100.00
23339;BME280;11841;49.368;20.962;2023-07-30T06:50:40;95388.97;;;19.38;100.00
23339;BME280;11841;49.368;20.962;2023-07-30T06:53:25;95396.47;;;19.46;100.00
23339;BME280;11841;49.368;20.962;2023-07-30T06:56:11;95390.75;;;19.53;100.00
23339;BME280;11841;49.368;20.962;2023-07-30T06:58:56;95394.44;;;19.62;100.00
23339;BME280;11841;49.368;20.962;2023-07-30T07:01:41;95382.56;;;19.68;100.00
23339;BME280;11841;49.368;20.962;2023-07-30T07:04:27;95384.09;;;19.79;100.00
23339;BME280;11841;49.368;20.962;2023-07-30T07:07:12;95382.13;;;19.89;100.00
23339;BME280;11841;49.368;20.962;2023-07-30T07:09:58;95373.91;;;20.04;100.00
23339;BME280;11841;49.368;20.962;2023-07-30T07:12:43;95379.97;;;20.20;100.00
23339;BME280;11841;49.368;20.962;2023-07-30T07:15:29;95385.25;;;20.30;100.00
23339;BME280;11841;49.368;20.962;2023-07-30T07:18:14;95382.47;;;20.40;100.00
23339;BME280;11841;49.368;20.962;2023-07-30T07:20:59;95382.41;;;20.45;100.00
23339;BME280;11841;49.368;20.962;2023-07-30T07:23:45;95381.78;;;20.53;100.00
23339;BME280;11841;49.368;20.962;2023-07-30T07:26:30;95374.44;;;20.59;100.00
23339;BME280;11841;49.368;20.962;2023-07-30T07:29:16;95384.59;;;20.67;100.00
23339;BME280;11841;49.368;20.962;2023-07-30T07:32:01;95382.63;;;20.72;100.00
23339;BME280;11841;49.368;20.962;2023-07-30T07:34:48;95374.50;;;20.77;100.00
23339;BME280;11841;49.368;20.962;2023-07-30T07:37:33;95381.38;;;20.88;100.00
23339;BME280;11841;49.368;20.962;2023-07-30T07:40:19;95377.22;;;20.96;99.59
23339;BME280;11841;49.368;20.962;2023-07-30T07:43:05;95380.38;;;21.03;100.00
23339;BME280;11841;49.368;20.962;2023-07-30T07:45:50;95374.16;;;21.07;100.00
23339;BME280;11841;49.368;20.962;2023-07-30T07:48:36;95361.97;;;21.10;99.49
23339;BME280;11841;49.368;20.962;2023-07-30T07:51:21;95364.88;;;21.13;97.94
23339;BME280;11841;49.368;20.962;2023-07-30T07:54:07;95361.31;;;21.18;96.17
23339;BME280;11841;49.368;20.962;2023-07-30T07:56:52;95358.84;;;21.21;95.79
23339;BME280;11841;49.368;20.962;2023-07-30T07:59:38;95355.50;;;21.29;95.60
23339;BME280;11841;49.368;20.962;2023-07-30T08:02:23;95357.53;;;21.37;95.64
23339;BME280;11841;49.368;20.962;2023-07-30T08:05:09;95359.88;;;21.44;92.15
23339;BME280;11841;49.368;20.962;2023-07-30T08:07:54;95371.53;;;21.58;93.32
23339;BME280;11841;49.368;20.962;2023-07-30T08:10:40;95365.44;;;21.66;90.41
23339;BME280;11841;49.368;20.962;2023-07-30T08:13:28;95362.69;;;21.71;90.34
23339;BME280;11841;49.368;20.962;2023-07-30T08:16:13;95369.88;;;21.76;89.52
23339;BME280;11841;49.368;20.962;2023-07-30T08:18:59;95368.22;;;21.80;89.17
23339;BME280;11841;49.368;20.962;2023-07-30T08:21:44;95367.34;;;21.84;85.89
23339;BME280;11841;49.368;20.962;2023-07-30T08:24:30;95365.38;;;21.90;84.32
23339;BME280;11841;49.368;20.962;2023-07-30T08:27:15;95367.38;;;21.98;86.10
23339;BME280;11841;49.368;20.962;2023-07-30T08:30:01;95361.69;;;21.99;84.87
23339;BME280;11841;49.368;20.962;2023-07-30T08:32:46;95364.03;;;22.06;83.44
23339;BME280;11841;49.368;20.962;2023-07-30T08:35:32;95365.00;;;22.10;83.44
23339;BME280;11841;49.368;20.962;2023-07-30T08:38:17;95373.63;;;22.12;83.09
23339;BME280;11841;49.368;20.962;2023-07-30T08:41:02;95372.44;;;22.18;83.14
23339;BME280;11841;49.368;20.962;2023-07-30T08:43:47;95381.53;;;22.22;81.75
23339;BME280;11841;49.368;20.962;2023-07-30T08:46:34;95380.94;;;22.25;81.79
23339;BME280;11841;49.368;20.962;2023-07-30T08:49:19;95387.66;;;22.27;80.92
23339;BME280;11841;49.368;20.962;2023-07-30T08:52:08;95381.66;;;22.30;81.58
23339;BME280;11841;49.368;20.962;2023-07-30T08:54:53;95392.06;;;22.37;79.39
23339;BME280;11841;49.368;20.962;2023-07-30T08:57:43;95394.69;;;22.42;78.61
23339;BME280;11841;49.368;20.962;2023-07-30T09:00:33;95395.41;;;22.47;77.59
23339;BME280;11841;49.368;20.962;2023-07-30T09:03:19;95391.53;;;22.53;76.53
23339;BME280;11841;49.368;20.962;2023-07-30T09:06:06;95382.53;;;22.58;77.67
23339;BME280;11841;49.368;20.962;2023-07-30T09:08:52;95385.34;;;22.66;79.61
23339;BME280;11841;49.368;20.962;2023-07-30T09:11:37;95387.13;;;22.71;79.30
23339;BME280;11841;49.368;20.962;2023-07-30T09:14:25;95380.53;;;22.77;77.70
23339;BME280;11841;49.368;20.962;2023-07-30T09:17:16;95380.91;;;22.84;75.61
23339;BME280;11841;49.368;20.962;2023-07-30T09:20:03;95381.31;;;22.91;77.07
23339;BME280;11841;49.368;20.962;2023-07-30T09:22:48;95387.72;;;22.95;75.35
23339;BME280;11841;49.368;20.962;2023-07-30T09:25:38;95379.50;;;23.00;75.41
23339;BME280;11841;49.368;20.962;2023-07-30T09:28:30;95378.59;;;23.05;72.95
23339;BME280;11841;49.368;20.962;2023-07-30T09:31:16;95370.78;;;23.03;74.69
23339;BME280;11841;49.368;20.962;2023-07-30T09:34:08;95368.38;;;23.15;75.29
23339;BME280;11841;49.368;20.962;2023-07-30T09:36:54;95360.44;;;23.19;74.99
23339;BME280;11841;49.368;20.962;2023-07-30T09:39:39;95360.03;;;23.25;74.96
23339;BME280;11841;49.368;20.962;2023-07-30T09:42:30;95352.97;;;23.29;75.63
23339;BME280;11841;49.368;20.962;2023-07-30T09:45:23;95361.06;;;23.29;73.58
23339;BME280;11841;49.368;20.962;2023-07-30T09:48:09;95357.88;;;23.27;73.67
23339;BME280;11841;49.368;20.962;2023-07-30T09:50:54;95353.47;;;23.31;74.33
23339;BME280;11841;49.368;20.962;2023-07-30T09:53:40;95358.25;;;23.34;74.23
23339;BME280;11841;49.368;20.962;2023-07-30T09:56:27;95357.94;;;23.36;73.05
23339;BME280;11841;49.368;20.962;2023-07-30T09:59:12;95357.00;;;23.40;73.67
23339;BME280;11841;49.368;20.962;2023-07-30T10:01:58;95354.50;;;23.44;74.00
23339;BME280;11841;49.368;20.962;2023-07-30T10:04:47;95360.09;;;23.47;74.25
23339;BME280;11841;49.368;20.962;2023-07-30T10:07:34;95358.41;;;23.51;74.05
23339;BME280;11841;49.368;20.962;2023-07-30T10:10:22;95361.50;;;23.58;74.37
23339;BME280;11841;49.368;20.962;2023-07-30T10:13:10;95361.88;;;23.65;75.45
23339;BME280;11841;49.368;20.962;2023-07-30T10:15:58;95359.50;;;23.72;72.68
23339;BME280;11841;49.368;20.962;2023-07-30T10:18:44;95356.09;;;23.80;73.57
23339;BME280;11841;49.368;20.962;2023-07-30T10:21:32;95351.31;;;23.86;72.09
23339;BME280;11841;49.368;20.962;2023-07-30T10:24:17;95347.22;;;23.88;69.96
23339;BME280;11841;49.368;20.962;2023-07-30T10:27:09;95345.00;;;23.90;69.71
23339;BME280;11841;49.368;20.962;2023-07-30T10:30:14;95344.88;;;23.96;68.42
23339;BME280;11841;49.368;20.962;2023-07-30T10:33:04;95343.75;;;23.97;67.11
23339;BME280;11841;49.368;20.962;2023-07-30T10:35:54;95346.34;;;24.02;66.90
23339;BME280;11841;49.368;20.962;2023-07-30T10:38:40;95338.91;;;24.07;67.72
23339;BME280;11841;49.368;20.962;2023-07-30T10:41:26;95333.06;;;24.14;66.96
23339;BME280;11841;49.368;20.962;2023-07-30T10:44:22;95336.25;;;24.16;64.75
23339;BME280;11841;49.368;20.962;2023-07-30T10:47:09;95332.59;;;24.20;66.27
23339;BME280;11841;49.368;20.962;2023-07-30T10:50:14;95338.84;;;24.21;65.23
23339;BME280;11841;49.368;20.962;2023-07-30T10:53:01;95331.19;;;24.23;65.59
23339;BME280;11841;49.368;20.962;2023-07-30T10:55:47;95328.97;;;24.25;65.80
23339;BME280;11841;49.368;20.962;2023-07-30T10:58:34;95330.75;;;24.29;65.00
23339;BME280;11841;49.368;20.962;2023-07-30T11:01:19;95337.75;;;24.30;65.04
23339;BME280;11841;49.368;20.962;2023-07-30T11:04:06;95327.72;;;24.31;64.85
23339;BME280;11841;49.368;20.962;2023-07-30T11:06:52;95336.66;;;24.31;63.60
23339;BME280;11841;49.368;20.962;2023-07-30T11:09:38;95334.44;;;24.33;64.35
23339;BME280;11841;49.368;20.962;2023-07-30T11:12:23;95333.63;;;24.33;63.28
23339;BME280;11841;49.368;20.962;2023-07-30T11:17:58;95330.78;;;24.38;64.59
23339;BME280;11841;49.368;20.962;2023-07-30T11:20:44;95331.91;;;24.37;64.12
23339;BME280;11841;49.368;20.962;2023-07-30T11:23:29;95321.84;;;24.37;63.76
23339;BME280;11841;49.368;20.962;2023-07-30T11:26:17;95322.81;;;24.33;63.96
23339;BME280;11841;49.368;20.962;2023-07-30T11:29:19;95313.06;;;24.32;62.21
23339;BME280;11841;49.368;20.962;2023-07-30T11:32:04;95318.31;;;24.28;62.40
23339;BME280;11841;49.368;20.962;2023-07-30T11:34:50;95316.53;;;24.24;63.95
23339;BME280;11841;49.368;20.962;2023-07-30T11:37:36;95314.81;;;24.28;66.47
23339;BME280;11841;49.368;20.962;2023-07-30T11:40:25;95307.50;;;24.28;67.50
23339;BME280;11841;49.368;20.962;2023-07-30T11:43:10;95315.31;;;24.30;68.64
23339;BME280;11841;49.368;20.962;2023-07-30T11:46:10;95320.41;;;24.31;70.02
23339;BME280;11841;49.368;20.962;2023-07-30T11:49:16;95321.03;;;24.28;71.51
23339;BME280;11841;49.368;20.962;2023-07-30T11:52:07;95318.59;;;24.27;72.27
23339;BME280;11841;49.368;20.962;2023-07-30T11:55:01;95327.50;;;24.19;72.32
23339;BME280;11841;49.368;20.962;2023-07-30T11:57:47;95325.44;;;24.16;73.21
23339;BME280;11841;49.368;20.962;2023-07-30T12:00:33;95330.13;;;24.02;73.95
23339;BME280;11841;49.368;20.962;2023-07-30T12:03:19;95329.66;;;23.86;73.52
23339;BME280;11841;49.368;20.962;2023-07-30T12:06:05;95328.63;;;23.73;73.48
23339;BME280;11841;49.368;20.962;2023-07-30T12:08:51;95326.84;;;23.69;73.28
23339;BME280;11841;49.368;20.962;2023-07-30T12:11:47;95321.28;;;23.65;73.46
23339;BME280;11841;49.368;20.962;2023-07-30T12:17:34;95345.97;;;23.50;74.25
23339;BME280;11841;49.368;20.962;2023-07-30T12:20:19;95351.03;;;23.43;74.35
23339;BME280;11841;49.368;20.962;2023-07-30T12:23:05;95353.84;;;23.38;75.04
23339;BME280;11841;49.368;20.962;2023-07-30T12:25:50;95362.84;;;23.34;75.95
23339;BME280;11841;49.368;20.962;2023-07-30T12:28:35;95365.34;;;23.30;76.60
23339;BME280;11841;49.368;20.962;2023-07-30T12:31:20;95369.72;;;23.04;77.18
23339;BME280;11841;49.368;20.962;2023-07-30T12:34:06;95372.13;;;22.79;77.91
23339;BME280;11841;49.368;20.962;2023-07-30T12:36:51;95376.38;;;22.52;78.84
23339;BME280;11841;49.368;20.962;2023-07-30T12:39:36;95381.25;;;22.37;79.21
23339;BME280;11841;49.368;20.962;2023-07-30T12:42:21;95375.84;;;22.23;79.25
23339;BME280;11841;49.368;20.962;2023-07-30T12:45:07;95378.03;;;22.21;78.92
23339;BME280;11841;49.368;20.962;2023-07-30T12:47:53;95385.03;;;22.09;78.37
23339;BME280;11841;49.368;20.962;2023-07-30T12:50:38;95377.00;;;22.04;78.79
23339;BME280;11841;49.368;20.962;2023-07-30T12:53:23;95382.75;;;21.84;78.96
23339;BME280;11841;49.368;20.962;2023-07-30T12:56:09;95389.94;;;21.70;80.22
23339;BME280;11841;49.368;20.962;2023-07-30T12:58:54;95396.41;;;21.55;81.46
23339;BME280;11841;49.368;20.962;2023-07-30T13:01:39;95389.16;;;21.50;82.25
23339;BME280;11841;49.368;20.962;2023-07-30T13:04:29;95395.72;;;21.63;82.72
23339;BME280;11841;49.368;20.962;2023-07-30T13:07:15;95393.69;;;21.74;83.21
23339;BME280;11841;49.368;20.962;2023-07-30T13:10:07;95402.50;;;21.79;84.69
23339;BME280;11841;49.368;20.962;2023-07-30T13:12:53;95406.53;;;21.82;84.79
23339;BME280;11841;49.368;20.962;2023-07-30T13:15:39;95412.72;;;21.82;86.46
23339;BME280;11841;49.368;20.962;2023-07-30T13:18:24;95404.91;;;21.81;86.23
23339;BME280;11841;49.368;20.962;2023-07-30T13:21:09;95403.97;;;21.72;85.31
23339;BME280;11841;49.368;20.962;2023-07-30T13:23:55;95406.66;;;21.72;85.99
23339;BME280;11841;49.368;20.962;2023-07-30T13:26:40;95404.25;;;21.70;87.84
23339;BME280;11841;49.368;20.962;2023-07-30T13:29:25;95403.53;;;21.65;88.66
23339;BME280;11841;49.368;20.962;2023-07-30T13:32:11;95397.53;;;21.68;88.55
23339;BME280;11841;49.368;20.962;2023-07-30T13:34:56;95393.94;;;21.72;87.89
23339;BME280;11841;49.368;20.962;2023-07-30T13:37:41;95393.69;;;21.74;88.64
23339;BME280;11841;49.368;20.962;2023-07-30T13:40:28;95397.09;;;21.60;89.78
23339;BME280;11841;49.368;20.962;2023-07-30T13:43:13;95396.81;;;21.43;91.11
23339;BME280;11841;49.368;20.962;2023-07-30T13:45:58;95397.25;;;21.32;91.43
23339;BME280;11841;49.368;20.962;2023-07-30T13:48:44;95391.19;;;21.21;90.09
23339;BME280;11841;49.368;20.962;2023-07-30T13:51:29;95394.25;;;21.15;89.95
23339;BME280;11841;49.368;20.962;2023-07-30T13:54:17;95392.66;;;21.14;89.28
23339;BME280;11841;49.368;20.962;2023-07-30T13:57:03;95391.91;;;21.08;89.10
23339;BME280;11841;49.368;20.962;2023-07-30T14:02:52;95388.25;;;20.99;89.18
23339;BME280;11841;49.368;20.962;2023-07-30T14:05:38;95389.22;;;21.08;88.30
23339;BME280;11841;49.368;20.962;2023-07-30T14:08:23;95380.47;;;21.16;87.70
23339;BME280;11841;49.368;20.962;2023-07-30T14:11:09;95387.03;;;21.10;88.98
23339;BME280;11841;49.368;20.962;2023-07-30T14:13:54;95376.84;;;21.07;89.06
23339;BME280;11841;49.368;20.962;2023-07-30T14:16:39;95376.34;;;21.05;89.26
23339;BME280;11841;49.368;20.962;2023-07-30T14:19:25;95365.91;;;20.99;91.10
23339;BME280;11841;49.368;20.962;2023-07-30T14:22:10;95372.88;;;21.00;90.70
23339;BME280;11841;49.368;20.962;2023-07-30T14:24:55;95368.03;;;21.02;90.58
23339;BME280;11841;49.368;20.962;2023-07-30T14:27:42;95360.16;;;21.05;89.64
23339;BME280;11841;49.368;20.962;2023-07-30T14:30:27;95354.63;;;21.15;89.45
23339;BME280;11841;49.368;20.962;2023-07-30T14:33:13;95355.06;;;21.22;89.36